Time;durP1;ratioP1;P1;durP2;ratioP2;P2;SDS_P1;SDS_P2;PMS_P1;PMS_P2;Temp;Humidity;BMP_temperature;BMP_pressure;BME280_temperature;BME280_humidity;BME280_pressure;Samples;Min_cycle;Max_cycle;Signal;HPM_P1;HPM_P2
2023/06/25 14:42:34;;;;;;;5.20;4.20;;;32.60;61.00;;;;;;6329757;22;20040;-74
2023/06/25 14:45:04;;;;;;;3.92;3.40;;;32.50;60.70;;;;;;6330941;22;20006;-75
2023/06/25 14:47:34;;;;;;;4.60;4.20;;;32.70;59.40;;;;;;6257755;22;20014;-74
2023/06/25 14:50:01;;;;;;;4.47;4.05;;;32.70;61.30;;;;;;6283590;22;20414;-73
2023/06/25 14:52:27;;;;;;;3.75;3.45;;;32.50;59.00;;;;;;6251802;22;20480;-75
2023/06/25 14:54:53;;;;;;;4.43;4.07;;;32.30;59.20;;;;;;6252206;22;20763;-74
2023/06/25 14:57:19;;;;;;;3.42;3.13;;;32.60;59.80;;;;;;6250898;22;20064;-75
2023/06/25 14:59:45;;;;;;;4.55;3.70;;;32.50;60.90;;;;;;6287300;22;20090;-74
2023/06/25 15:02:11;;;;;;;4.20;3.80;;;32.50;61.40;;;;;;6287361;22;20006;-73
2023/06/25 15:04:38;;;;;;;6.10;4.30;;;32.10;60.70;;;;;;6251931;22;20003;-76
2023/06/25 15:07:04;;;;;;;3.75;3.50;;;31.90;60.90;;;;;;6276117;22;20422;-76
2023/06/25 15:09:31;;;;;;;3.40;3.20;;;31.90;62.50;;;;;;6274962;22;20007;-76
2023/06/25 15:11:56;;;;;;;4.25;3.85;;;31.90;61.90;;;;;;6251747;22;20000;-76
2023/06/25 15:14:22;;;;;;;4.47;3.40;;;32.10;62.30;;;;;;6277169;22;20461;-72
2023/06/25 15:16:48;;;;;;;3.83;3.53;;;32.60;62.90;;;;;;6248312;22;19996;-73
2023/06/25 15:19:14;;;;;;;4.78;4.30;;;32.70;61.70;;;;;;6251112;22;20015;-74
2023/06/25 15:21:40;;;;;;;4.45;3.85;;;32.30;63.40;;;;;;6250380;22;20449;-74
2023/06/25 15:24:06;;;;;;;4.63;3.95;;;32.40;62.10;;;;;;6287869;22;19999;-73
2023/06/25 15:26:32;;;;;;;4.45;4.13;;;32.70;60.60;;;;;;6201313;22;20053;-74
2023/06/25 15:28:58;;;;;;;4.30;3.58;;;32.90;61.90;;;;;;6200304;22;20011;-74
2023/06/25 15:31:24;;;;;;;4.32;3.92;;;32.60;60.70;;;;;;6314845;22;20044;-74
2023/06/25 15:33:50;;;;;;;4.53;4.10;;;32.30;61.10;;;;;;6251392;22;20089;-74
2023/06/25 15:36:16;;;;;;;4.18;3.88;;;32.00;61.10;;;;;;6226002;22;20410;-74
2023/06/25 15:38:42;;;;;;;4.28;3.83;;;32.20;62.40;;;;;;6248847;22;20109;-73
2023/06/25 15:41:08;;;;;;;4.05;3.75;;;32.00;60.80;;;;;;6248855;22;19999;-74
2023/06/25 15:43:34;;;;;;;3.45;3.08;;;31.80;61.50;;;;;;6274997;22;20452;-74
2023/06/25 15:46:01;;;;;;;3.90;3.55;;;31.80;61.60;;;;;;6276127;22;20110;-73
2023/06/25 15:48:27;;;;;;;7.03;3.22;;;31.80;62.10;;;;;;6314765;22;19999;-73
2023/06/25 15:50:53;;;;;;;4.00;3.65;;;31.70;62.40;;;;;;6275707;22;20007;-74
2023/06/25 15:53:18;;;;;;;4.68;3.20;;;31.70;62.30;;;;;;6277392;22;19999;-74
2023/06/25 15:55:45;;;;;;;4.22;3.90;;;31.60;63.20;;;;;;6313899;22;20553;-74
2023/06/25 15:58:13;;;;;;;3.88;3.58;;;31.60;62.60;;;;;;6275824;22;20003;-73
2023/06/25 16:00:39;;;;;;;4.65;4.03;;;31.70;61.80;;;;;;6274698;22;20415;-74
2023/06/25 16:03:06;;;;;;;4.07;3.72;;;31.80;60.10;;;;;;6247056;22;20094;-74
2023/06/25 16:05:32;;;;;;;4.53;4.13;;;31.80;61.30;;;;;;6286068;22;20072;-74
2023/06/25 16:07:58;;;;;;;5.63;4.53;;;32.00;61.60;;;;;;6251784;22;20004;-75
2023/06/25 16:10:24;;;;;;;3.55;3.25;;;32.00;61.10;;;;;;6286508;22;20002;-73
2023/06/25 16:12:50;;;;;;;5.82;3.78;;;32.00;60.90;;;;;;6273333;22;20030;-74
2023/06/25 16:15:15;;;;;;;3.78;3.33;;;31.90;61.40;;;;;;6249426;22;19996;-74
2023/06/25 16:17:41;;;;;;;3.83;3.45;;;31.70;60.70;;;;;;6246703;22;19999;-74
2023/06/25 16:20:08;;;;;;;3.45;3.22;;;31.50;61.50;;;;;;6310553;22;20008;-75
2023/06/25 16:22:34;;;;;;;4.32;3.63;;;31.60;61.00;;;;;;6313752;22;20101;-74
2023/06/25 16:25:00;;;;;;;4.10;3.70;;;31.50;61.80;;;;;;6249216;22;19992;-74
2023/06/25 16:27:28;;;;;;;3.42;3.13;;;31.60;62.80;;;;;;6274808;22;20026;-75
2023/06/25 16:29:55;;;;;;;4.82;4.30;;;31.60;63.80;;;;;;6287272;22;20023;-75
2023/06/25 16:32:20;;;;;;;4.05;3.75;;;31.50;61.70;;;;;;6277706;22;20528;-75
2023/06/25 16:34:46;;;;;;;4.32;3.92;;;31.40;63.10;;;;;;6249731;22;20031;-74
2023/06/25 16:37:12;;;;;;;4.22;2.97;;;31.60;63.30;;;;;;6276888;22;20007;-75
2023/06/25 16:39:38;;;;;;;3.85;3.55;;;31.60;64.00;;;;;;6250243;22;20109;-73
2023/06/25 16:42:04;;;;;;;3.90;3.60;;;31.80;63.70;;;;;;6306137;22;20003;-73
2023/06/25 16:44:30;;;;;;;4.32;3.38;;;31.90;62.90;;;;;;6285694;22;20071;-74
2023/06/25 16:46:56;;;;;;;7.75;4.32;;;31.90;63.30;;;;;;6277078;22;20018;-74
2023/06/25 16:49:21;;;;;;;4.57;3.65;;;31.80;63.50;;;;;;6276440;22;20003;-74
2023/06/25 16:51:47;;;;;;;3.85;3.55;;;31.60;63.50;;;;;;6249687;22;20479;-73
2023/06/25 16:54:13;;;;;;;3.83;3.53;;;31.50;62.50;;;;;;6285599;22;19999;-75
2023/06/25 16:56:41;;;;;;;4.30;3.90;;;31.40;62.00;;;;;;6285830;22;20006;-73
2023/06/25 16:59:07;;;;;;;3.78;3.45;;;31.30;63.20;;;;;;6317077;22;20401;-74
2023/06/25 17:01:33;;;;;;;4.47;4.07;;;31.40;64.90;;;;;;6279323;22;20007;-73
2023/06/25 17:03:59;;;;;;;4.00;3.35;;;31.40;63.40;;;;;;6278876;22;20385;-74
2023/06/25 17:06:25;;;;;;;4.35;3.95;;;31.50;64.10;;;;;;6278828;22;20007;-73
2023/06/25 17:08:51;;;;;;;2.95;2.75;;;31.60;65.20;;;;;;6278937;22;19996;-74
2023/06/25 17:11:16;;;;;;;4.20;3.85;;;31.60;63.50;;;;;;6251161;22;20003;-74
2023/06/25 17:13:42;;;;;;;4.47;4.07;;;31.50;63.50;;;;;;6315901;22;20010;-74
2023/06/25 17:16:08;;;;;;;4.25;3.95;;;31.40;64.00;;;;;;6251886;22;20003;-75
2023/06/25 17:18:34;;;;;;;4.90;4.50;;;31.40;64.70;;;;;;6273281;22;20327;-75
2023/06/25 17:21:01;;;;;;;4.43;4.03;;;31.50;64.20;;;;;;6288936;22;19995;-75
2023/06/25 17:23:27;;;;;;;3.90;3.60;;;31.50;64.30;;;;;;6279099;22;20414;-74
2023/06/25 17:25:53;;;;;;;3.75;3.45;;;31.40;64.20;;;;;;6279008;22;20034;-74
2023/06/25 17:28:18;;;;;;;4.35;3.30;;;31.50;63.80;;;;;;6317357;22;20074;-73
2023/06/25 17:30:44;;;;;;;3.83;3.53;;;31.50;64.50;;;;;;6289327;22;20010;-74
2023/06/25 17:33:10;;;;;;;3.30;3.00;;;31.30;63.60;;;;;;6246334;22;19999;-75
2023/06/25 17:35:36;;;;;;;3.75;3.45;;;31.30;65.10;;;;;;6306759;22;20004;-74
2023/06/25 17:38:02;;;;;;;4.40;4.03;;;31.30;65.30;;;;;;6281528;22;20098;-74
2023/06/25 17:40:28;;;;;;;3.72;3.42;;;31.30;64.80;;;;;;6252188;22;20012;-74
2023/06/25 17:42:54;;;;;;;4.75;4.32;;;31.30;64.10;;;;;;6228372;22;20011;-75
2023/06/25 17:45:20;;;;;;;4.13;3.83;;;31.30;65.20;;;;;;6221786;22;20004;-74
2023/06/25 17:47:46;;;;;;;3.08;2.88;;;31.10;65.10;;;;;;6256668;22;20035;-74
2023/06/25 17:50:12;;;;;;;6.25;4.05;;;31.10;64.30;;;;;;6257617;22;20457;-75
2023/06/25 17:52:37;;;;;;;3.92;3.53;;;31.10;64.90;;;;;;6257986;22;20000;-75
2023/06/25 17:55:04;;;;;;;6.53;3.67;;;31.10;65.30;;;;;;6220953;22;20027;-75
2023/06/25 17:57:30;;;;;;;4.05;3.63;;;31.00;65.10;;;;;;6242681;22;20082;-74
2023/06/25 17:59:56;;;;;;;4.68;3.75;;;31.00;65.30;;;;;;6281399;22;20012;-75
2023/06/25 18:02:22;;;;;;;3.85;3.55;;;31.00;65.10;;;;;;6245744;22;20577;-74
2023/06/25 18:04:49;;;;;;;4.65;4.25;;;30.90;65.30;;;;;;6244409;22;20015;-75
2023/06/25 18:07:14;;;;;;;4.15;3.75;;;30.80;65.20;;;;;;6220046;22;20004;-75
2023/06/25 18:09:40;;;;;;;4.13;3.83;;;30.60;66.00;;;;;;6255825;22;20010;-74
2023/06/25 18:12:07;;;;;;;3.75;3.40;;;30.50;65.80;;;;;;6249283;22;20003;-74
2023/06/25 18:14:33;;;;;;;5.40;4.45;;;30.50;66.70;;;;;;6283347;22;20003;-74
2023/06/25 18:16:59;;;;;;;3.75;3.45;;;30.40;66.70;;;;;;6215860;22;20006;-75
2023/06/25 18:19:25;;;;;;;4.28;3.88;;;30.40;67.80;;;;;;6271429;22;20077;-74
2023/06/25 18:21:51;;;;;;;4.20;3.85;;;30.10;67.70;;;;;;6221576;22;19999;-74
2023/06/25 18:24:17;;;;;;;3.78;3.47;;;30.10;68.30;;;;;;6257051;22;20004;-74
2023/06/25 18:26:43;;;;;;;4.38;4.00;;;29.90;68.30;;;;;;6272797;22;20035;-75
2023/06/25 18:29:10;;;;;;;4.45;4.03;;;29.90;68.80;;;;;;6246009;22;19999;-74
2023/06/25 18:31:40;;;;;;;4.47;4.07;;;29.80;69.60;;;;;;6284500;22;20007;-74
2023/06/25 18:34:13;;;;;;;4.80;4.30;;;29.70;70.00;;;;;;6247015;22;20003;-75
2023/06/25 18:36:40;;;;;;;6.63;4.03;;;29.50;69.80;;;;;;6246342;22;20019;-73
2023/06/25 18:39:09;;;;;;;4.15;3.60;;;29.50;69.80;;;;;;6283003;22;20014;-75
2023/06/25 18:41:35;;;;;;;5.22;4.75;;;29.40;70.60;;;;;;6248368;22;20004;-77
2023/06/25 18:44:01;;;;;;;4.05;3.70;;;29.30;70.30;;;;;;6284315;22;20126;-74
2023/06/25 18:46:28;;;;;;;6.63;3.78;;;29.20;71.60;;;;;;6271743;22;20020;-76
2023/06/25 18:48:55;;;;;;;5.28;4.03;;;29.00;72.20;;;;;;6281152;22;20007;-75
2023/06/25 18:51:22;;;;;;;4.45;4.05;;;28.90;73.90;;;;;;6268805;22;20479;-76
2023/06/25 18:53:47;;;;;;;4.45;3.08;;;28.90;74.10;;;;;;6245760;22;19995;-76
2023/06/25 18:56:14;;;;;;;4.63;4.18;;;28.90;74.30;;;;;;6307287;22;20029;-76
2023/06/25 18:58:42;;;;;;;6.18;4.68;;;28.80;75.10;;;;;;6272344;22;20020;-76
2023/06/25 19:01:08;;;;;;;5.50;5.00;;;28.70;75.00;;;;;;6284628;22;19996;-76
2023/06/25 19:03:34;;;;;;;5.22;4.72;;;28.60;75.50;;;;;;6281074;22;20437;-77
2023/06/25 19:06:01;;;;;;;5.32;4.53;;;28.60;75.80;;;;;;6283014;22;19996;-75
2023/06/25 19:08:27;;;;;;;5.10;4.60;;;28.50;75.60;;;;;;6282464;22;20371;-76
2023/06/25 19:10:53;;;;;;;5.18;4.70;;;28.50;76.30;;;;;;6244549;22;20040;-76
2023/06/25 19:13:18;;;;;;;6.53;4.97;;;28.40;76.20;;;;;;6284263;22;20098;-76
2023/06/25 19:15:44;;;;;;;5.57;4.70;;;28.40;77.40;;;;;;6283127;22;20007;-75
2023/06/25 19:18:12;;;;;;;5.63;5.18;;;28.30;77.90;;;;;;6282101;22;19996;-75
2023/06/25 19:20:39;;;;;;;6.72;5.40;;;28.10;78.10;;;;;;6272265;22;20506;-77
2023/06/25 19:23:06;;;;;;;6.78;5.05;;;28.00;80.30;;;;;;6246670;22;20006;-76
2023/06/25 19:25:32;;;;;;;5.28;4.78;;;27.80;80.00;;;;;;6272649;22;20004;-76
2023/06/25 19:27:57;;;;;;;6.45;4.70;;;27.80;81.50;;;;;;6246915;22;19996;-77
2023/06/25 19:30:23;;;;;;;5.03;4.53;;;27.80;81.50;;;;;;6246470;22;20369;-76
2023/06/25 19:32:51;;;;;;;5.03;4.60;;;27.70;81.60;;;;;;6272859;22;20427;-77
2023/06/25 19:35:17;;;;;;;5.60;5.05;;;27.60;83.00;;;;;;6271211;22;20483;-77
2023/06/25 19:37:43;;;;;;;4.70;4.40;;;27.50;82.90;;;;;;6246126;22;20031;-77
2023/06/25 19:40:10;;;;;;;8.48;4.80;;;27.40;86.40;;;;;;6244653;22;20020;-75
2023/06/25 19:42:36;;;;;;;4.97;4.25;;;27.30;83.50;;;;;;6227059;22;20094;-75
2023/06/25 19:45:03;;;;;;;4.60;4.25;;;27.30;83.50;;;;;;6217210;22;20038;-75
2023/06/25 19:47:29;;;;;;;9.63;5.05;;;27.20;85.00;;;;;;6255763;22;20006;-77
2023/06/25 19:49:55;;;;;;;5.05;4.65;;;27.10;86.50;;;;;;6245981;22;20090;-76
2023/06/25 19:52:21;;;;;;;5.72;5.22;;;27.00;87.50;;;;;;6283341;22;20003;-76
2023/06/25 19:54:47;;;;;;;5.88;4.85;;;27.00;88.80;;;;;;6220390;22;20419;-76
2023/06/25 19:57:13;;;;;;;6.78;4.88;;;26.80;88.90;;;;;;6255744;22;20002;-77
2023/06/25 19:59:40;;;;;;;4.90;4.50;;;26.60;90.60;;;;;;6252726;22;20149;-77
2023/06/25 20:02:07;;;;;;;10.63;6.10;;;26.50;91.00;;;;;;6213184;22;19999;-76
2023/06/25 20:04:40;;;;;;;5.47;5.03;;;26.30;92.10;;;;;;6219516;22;20423;-75
2023/06/25 20:07:06;;;;;;;5.68;5.13;;;26.20;93.90;;;;;;6240368;22;20026;-76
2023/06/25 20:09:32;;;;;;;6.55;5.72;;;25.90;94.90;;;;;;6216394;22;20003;-76
2023/06/25 20:11:58;;;;;;;6.28;5.68;;;25.90;95.50;;;;;;6272872;22;20423;-76
2023/06/25 20:14:24;;;;;;;6.13;5.32;;;25.80;96.10;;;;;;6281564;22;20037;-75
2023/06/25 20:16:50;;;;;;;5.75;5.25;;;25.90;96.00;;;;;;6213636;22;20011;-75
2023/06/25 20:19:16;;;;;;;6.20;5.70;;;25.90;95.70;;;;;;6240729;22;20440;-76
2023/06/25 20:21:43;;;;;;;5.47;4.97;;;25.80;96.80;;;;;;6251952;22;20004;-75
2023/06/25 20:24:10;;;;;;;7.60;5.78;;;25.60;98.20;;;;;;6251264;22;20122;-76
2023/06/25 20:26:36;;;;;;;7.32;6.18;;;25.50;98.70;;;;;;6237720;22;20118;-76
2023/06/25 20:29:05;;;;;;;6.93;5.63;;;25.40;99.30;;;;;;6237783;22;20027;-76
2023/06/25 20:31:33;;;;;;;6.57;6.07;;;25.30;99.80;;;;;;6189045;23;20005;-75
2023/06/25 20:33:59;;;;;;;5.30;4.90;;;25.20;99.90;;;;;;6181631;23;20011;-75
2023/06/25 20:36:25;;;;;;;6.50;5.65;;;25.10;99.90;;;;;;6183850;23;20321;-77
2023/06/25 20:38:51;;;;;;;5.85;5.35;;;25.10;99.90;;;;;;6182536;23;20436;-75
2023/06/25 20:41:16;;;;;;;9.90;6.45;;;25.20;99.90;;;;;;6191294;23;20328;-76
2023/06/25 20:43:42;;;;;;;6.60;5.97;;;25.10;99.90;;;;;;6223900;23;20004;-75
2023/06/25 20:46:08;;;;;;;7.00;5.97;;;25.10;99.90;;;;;;6189720;23;20570;-76
2023/06/25 20:48:34;;;;;;;6.85;6.32;;;24.90;99.90;;;;;;6249189;23;20588;-76
2023/06/25 20:50:59;;;;;;;6.20;5.70;;;24.90;99.90;;;;;;6224527;23;20100;-76
2023/06/25 20:53:26;;;;;;;5.57;5.07;;;24.80;99.90;;;;;;6189204;23;20000;-77
2023/06/25 20:55:52;;;;;;;9.45;6.38;;;24.80;99.90;;;;;;6189935;23;20005;-76
2023/06/25 20:58:18;;;;;;;6.53;5.93;;;24.70;99.90;;;;;;6224644;23;20000;-76
2023/06/25 21:00:45;;;;;;;6.65;6.15;;;24.70;99.90;;;;;;6188853;23;20004;-76
2023/06/25 21:03:11;;;;;;;8.85;6.85;;;24.60;99.90;;;;;;6190197;23;20120;-75
2023/06/25 21:05:37;;;;;;;6.78;5.93;;;24.50;99.90;;;;;;6224450;23;20086;-76
2023/06/25 21:08:03;;;;;;;6.68;6.07;;;24.50;99.90;;;;;;6251192;23;19996;-77
2023/06/25 21:10:29;;;;;;;7.40;6.45;;;24.40;99.90;;;;;;6241448;23;20335;-76
2023/06/25 21:12:55;;;;;;;7.15;6.32;;;24.30;99.90;;;;;;6225354;23;20019;-77
2023/06/25 21:15:21;;;;;;;7.15;6.53;;;24.20;99.90;;;;;;6240654;23;20746;-77
2023/06/25 21:17:47;;;;;;;7.30;6.43;;;24.20;99.90;;;;;;6225483;23;19996;-76
2023/06/25 21:20:12;;;;;;;8.25;5.82;;;24.10;99.90;;;;;;6190594;23;20069;-77
2023/06/25 21:22:38;;;;;;;7.57;6.88;;;24.00;99.90;;;;;;6165707;23;20078;-76
2023/06/25 21:25:04;;;;;;;7.47;6.80;;;23.80;99.90;;;;;;6190524;23;20023;-77
2023/06/25 21:27:30;;;;;;;6.78;6.18;;;23.80;99.90;;;;;;6240978;23;20056;-76
2023/06/25 21:29:56;;;;;;;7.55;6.85;;;23.70;99.90;;;;;;6251371;23;20102;-77
2023/06/25 21:32:22;;;;;;;8.98;8.07;;;23.70;99.90;;;;;;6226046;23;20424;-76
2023/06/25 21:34:48;;;;;;;7.22;6.50;;;23.70;99.90;;;;;;6258290;22;20007;-77
2023/06/25 21:37:14;;;;;;;7.43;6.72;;;23.60;99.90;;;;;;6252477;22;20365;-77
2023/06/25 21:39:39;;;;;;;8.18;7.45;;;23.60;99.90;;;;;;6278193;22;20373;-77
2023/06/25 21:42:05;;;;;;;8.40;6.28;;;23.50;99.90;;;;;;6278142;22;20011;-76
2023/06/25 21:44:31;;;;;;;7.63;6.85;;;23.40;99.90;;;;;;6290274;22;20090;-77
2023/06/25 21:46:57;;;;;;;7.35;6.72;;;23.40;99.90;;;;;;6253668;22;20042;-77
2023/06/25 21:49:23;;;;;;;6.97;6.38;;;23.30;99.90;;;;;;6279561;22;20015;-78
2023/06/25 21:51:49;;;;;;;6.53;5.43;;;23.30;99.90;;;;;;6254118;22;20028;-76
2023/06/25 21:54:16;;;;;;;7.10;6.50;;;23.20;99.90;;;;;;6317721;22;20422;-77
2023/06/25 21:56:42;;;;;;;8.15;7.38;;;23.10;99.90;;;;;;6254363;22;20430;-77
2023/06/25 21:59:08;;;;;;;11.77;7.68;;;23.10;99.90;;;;;;6290253;22;20007;-77
2023/06/25 22:01:34;;;;;;;7.13;6.50;;;23.00;99.90;;;;;;6254175;22;19992;-76
2023/06/25 22:04:00;;;;;;;8.60;7.65;;;22.90;99.90;;;;;;6279962;22;20007;-77
2023/06/25 22:06:25;;;;;;;8.07;7.45;;;22.90;99.90;;;;;;6318108;22;20078;-77
2023/06/25 22:08:51;;;;;;;7.50;6.80;;;22.80;99.90;;;;;;6280123;22;20003;-77
2023/06/25 22:11:17;;;;;;;7.00;6.43;;;22.70;99.90;;;;;;6254307;22;20448;-76
2023/06/25 22:13:43;;;;;;;7.57;6.88;;;22.70;99.90;;;;;;6290243;22;20073;-76
2023/06/25 22:16:09;;;;;;;7.63;6.93;;;22.70;99.90;;;;;;6290248;22;20002;-77
2023/06/25 22:18:36;;;;;;;6.63;6.03;;;22.60;99.90;;;;;;6317252;22;20003;-77
2023/06/25 22:21:07;;;;;;;7.43;6.40;;;22.60;99.90;;;;;;6254608;22;20000;-77
2023/06/25 22:23:37;;;;;;;7.80;6.13;;;22.50;99.90;;;;;;6290211;22;20004;-77
2023/06/25 22:26:03;;;;;;;9.10;8.23;;;22.50;99.90;;;;;;6317482;22;20003;-77
2023/06/25 22:28:29;;;;;;;7.25;6.53;;;22.50;99.90;;;;;;6279852;22;20389;-76
2023/06/25 22:30:55;;;;;;;8.15;7.35;;;22.40;99.90;;;;;;6316711;22;20006;-77
2023/06/25 22:33:21;;;;;;;7.15;6.45;;;22.40;99.90;;;;;;6290157;22;19999;-77
2023/06/25 22:35:47;;;;;;;9.10;7.70;;;22.40;99.90;;;;;;6254222;22;20078;-77
2023/06/25 22:38:14;;;;;;;7.47;6.78;;;22.30;99.90;;;;;;6254321;22;20359;-77
2023/06/25 22:40:41;;;;;;;7.55;6.85;;;22.30;99.90;;;;;;6289178;22;20011;-77
2023/06/25 22:43:07;;;;;;;8.57;7.88;;;22.20;99.90;;;;;;6254058;22;20006;-77
2023/06/25 22:45:32;;;;;;;8.32;7.63;;;22.20;99.90;;;;;;6317523;22;19999;-77
2023/06/25 22:47:58;;;;;;;8.57;7.78;;;22.10;99.90;;;;;;6253594;22;20018;-76
2023/06/25 22:50:26;;;;;;;9.63;8.55;;;22.20;99.90;;;;;;6279924;22;20045;-77
2023/06/25 22:52:52;;;;;;;14.07;9.93;;;22.10;99.90;;;;;;6253977;22;20431;-77
2023/06/25 22:55:18;;;;;;;8.77;7.88;;;22.20;99.90;;;;;;6315624;22;20007;-77
2023/06/25 22:57:44;;;;;;;10.93;8.27;;;22.20;99.90;;;;;;6254065;22;20033;-77
2023/06/25 23:00:10;;;;;;;9.45;8.65;;;22.30;99.90;;;;;;6317439;22;20335;-77
2023/06/25 23:02:36;;;;;;;9.57;8.77;;;22.30;99.90;;;;;;6317229;22;19995;-78
2023/06/25 23:05:02;;;;;;;9.73;8.88;;;22.20;99.90;;;;;;6279772;22;20014;-77
2023/06/25 23:07:28;;;;;;;9.88;8.88;;;22.10;99.90;;;;;;6289334;22;19992;-78
2023/06/25 23:09:54;;;;;;;10.68;9.57;;;22.00;99.90;;;;;;6279281;22;20138;-75
2023/06/25 23:12:20;;;;;;;8.73;8.02;;;21.90;99.90;;;;;;6253438;22;20318;-77
2023/06/25 23:14:46;;;;;;;10.68;9.20;;;21.80;99.90;;;;;;6279024;22;20011;-77
2023/06/25 23:17:12;;;;;;;8.48;7.78;;;21.80;99.90;;;;;;6316761;22;19995;-77
2023/06/25 23:19:39;;;;;;;8.82;8.13;;;21.70;99.90;;;;;;6253584;22;20046;-77
2023/06/25 23:22:05;;;;;;;7.75;7.05;;;21.70;99.90;;;;;;6315181;22;19999;-77
2023/06/25 23:24:37;;;;;;;8.55;7.78;;;21.60;99.90;;;;;;6289636;22;19999;-77
2023/06/25 23:27:05;;;;;;;9.05;8.13;;;21.60;99.90;;;;;;6279188;22;20003;-77
2023/06/25 23:29:34;;;;;;;7.95;7.25;;;21.50;99.90;;;;;;6316846;22;20003;-76
2023/06/25 23:32:04;;;;;;;7.32;6.72;;;21.40;99.90;;;;;;6316997;22;20019;-77
2023/06/25 23:34:30;;;;;;;;;;;21.30;99.90;;;;;;6317290;22;20075;-77
2023/06/25 23:36:56;;;;;;;7.78;7.18;;;21.30;99.90;;;;;;6278965;22;19952;-77
2023/06/25 23:39:22;;;;;;;8.35;7.38;;;21.20;99.90;;;;;;6317168;22;20089;-77
2023/06/25 23:41:47;;;;;;;7.75;7.00;;;21.20;99.90;;;;;;6310413;22;20102;-76
2023/06/25 23:44:14;;;;;;;10.10;8.20;;;21.20;99.90;;;;;;6253400;22;20005;-76
2023/06/25 23:46:40;;;;;;;7.00;6.30;;;21.20;99.90;;;;;;6289302;22;20074;-77
2023/06/25 23:49:06;;;;;;;7.95;7.22;;;21.30;99.90;;;;;;6279111;22;20045;-77
2023/06/25 23:51:33;;;;;;;7.80;7.03;;;21.30;99.90;;;;;;6253723;22;20003;-78
2023/06/25 23:53:59;;;;;;;7.85;6.50;;;21.30;99.90;;;;;;6253573;22;20090;-77
2023/06/25 23:56:25;;;;;;;6.88;6.18;;;21.40;99.90;;;;;;6279172;22;20503;-77
2023/06/25 23:58:51;;;;;;;8.77;7.07;;;21.40;99.90;;;;;;6278468;22;20015;-76
